createdAt,value
2019-01-13T00:00:24.258Z,70.70
2019-01-13T00:03:29.477Z,71.30
2019-01-13T00:06:34.387Z,70.70
2019-01-13T00:09:39.200Z,70.50
2019-01-13T00:12:44.035Z,70.60
2019-01-13T00:15:48.886Z,70.30
2019-01-13T00:18:54.670Z,70.20
2019-01-13T00:21:59.481Z,70.30
2019-01-13T00:25:04.914Z,70.40
2019-01-13T00:28:10.689Z,71.00
2019-01-13T00:31:15.539Z,70.60
2019-01-13T00:34:20.375Z,71.10
2019-01-13T00:37:25.243Z,71.00
2019-01-13T00:40:30.073Z,72.00
2019-01-13T00:43:34.907Z,71.90
2019-01-13T00:46:39.706Z,71.30
2019-01-13T00:49:44.572Z,71.30
2019-01-13T00:52:49.549Z,70.70
2019-01-13T00:55:54.407Z,71.30
2019-01-13T00:58:59.337Z,71.70
2019-01-13T01:02:04.314Z,71.60
2019-01-13T01:05:10.377Z,71.60
2019-01-13T01:08:15.587Z,72.10
2019-01-13T01:11:20.596Z,72.10
2019-01-13T01:14:25.429Z,72.80
2019-01-13T01:17:30.517Z,71.90
2019-01-13T01:20:35.438Z,71.90
2019-01-13T01:23:40.265Z,71.40
2019-01-13T01:26:45.107Z,71.90
2019-01-13T01:29:49.963Z,71.60
2019-01-13T01:32:54.947Z,71.70
2019-01-13T01:35:59.742Z,71.70
2019-01-13T01:39:06.603Z,70.50
2019-01-13T01:42:11.449Z,70.10
2019-01-13T01:45:18.247Z,69.80
2019-01-13T01:48:23.074Z,69.10
2019-01-13T01:51:27.913Z,68.60
2019-01-13T01:54:32.801Z,68.70
2019-01-13T01:57:37.610Z,67.90
2019-01-13T02:00:42.421Z,67.80
2019-01-13T02:03:47.269Z,66.80
2019-01-13T02:06:52.181Z,66.40
2019-01-13T02:09:57.029Z,66.60
2019-01-13T02:13:01.825Z,65.40
2019-01-13T02:16:06.649Z,65.60
2019-01-13T02:19:11.461Z,65.70
2019-01-13T02:22:16.328Z,65.40
2019-01-13T02:25:23.860Z,65.80
2019-01-13T02:28:28.670Z,66.30
2019-01-13T02:31:33.511Z,66.20
2019-01-13T02:34:38.362Z,66.70
2019-01-13T02:37:44.243Z,66.80
2019-01-13T02:40:49.216Z,67.10
2019-01-13T02:43:54.100Z,67.50
2019-01-13T02:46:58.914Z,67.70
2019-01-13T02:50:06.457Z,67.90
2019-01-13T02:53:11.270Z,68.50
2019-01-13T02:56:16.089Z,68.60
2019-01-13T02:59:20.922Z,68.70
2019-01-13T03:02:25.813Z,69.20
2019-01-13T03:05:30.866Z,71.40
2019-01-13T03:08:35.706Z,72.60
2019-01-13T03:11:40.505Z,73.30
2019-01-13T03:14:45.355Z,74.20
2019-01-13T03:17:50.973Z,74.70
2019-01-13T03:20:55.813Z,75.10
2019-01-13T03:24:00.638Z,74.80
2019-01-13T03:27:06.439Z,75.20
2019-01-13T03:30:16.830Z,75.10
2019-01-13T03:33:21.748Z,75.20
2019-01-13T03:36:26.657Z,75.20
2019-01-13T03:39:31.517Z,75.20
2019-01-13T03:42:36.341Z,75.70
2019-01-13T03:45:41.184Z,75.60
2019-01-13T03:48:46.061Z,75.40
2019-01-13T03:51:50.901Z,75.60
2019-01-13T03:54:55.791Z,75.60
2019-01-13T03:58:00.635Z,75.90
2019-01-13T04:01:05.488Z,75.60
2019-01-13T04:04:10.292Z,75.50
2019-01-13T04:07:15.136Z,76.10
2019-01-13T04:10:20.121Z,75.60
2019-01-13T04:13:24.974Z,75.80
2019-01-13T04:16:30.452Z,76.00
2019-01-13T04:19:35.308Z,75.70
2019-01-13T04:22:40.185Z,75.20
2019-01-13T04:25:45.031Z,75.10
2019-01-13T04:28:49.921Z,75.50
2019-01-13T04:31:54.717Z,74.90
2019-01-13T04:34:59.537Z,75.10
2019-01-13T04:38:04.642Z,75.40
2019-01-13T04:41:09.453Z,75.60
2019-01-13T04:44:14.278Z,75.60
2019-01-13T04:47:19.093Z,76.00
2019-01-13T04:50:23.932Z,76.20
2019-01-13T04:53:28.764Z,76.20
2019-01-13T04:56:33.649Z,76.30
2019-01-13T04:59:38.489Z,76.50
2019-01-13T05:02:43.337Z,76.60
2019-01-13T05:05:48.238Z,76.80
2019-01-13T05:08:53.111Z,76.40
2019-01-13T05:11:57.945Z,76.60
2019-01-13T05:15:02.792Z,76.20
2019-01-13T05:18:07.601Z,76.10
2019-01-13T05:21:12.434Z,75.90
2019-01-13T05:24:17.280Z,75.70
2019-01-13T05:27:22.073Z,76.00
2019-01-13T05:30:26.923Z,75.90
2019-01-13T05:33:31.728Z,76.20
2019-01-13T05:36:36.576Z,75.30
2019-01-13T05:39:42.260Z,75.00
2019-01-13T05:42:47.126Z,75.60
2019-01-13T05:45:51.941Z,75.40
2019-01-13T05:48:56.949Z,75.40
2019-01-13T05:52:01.779Z,75.50
2019-01-13T05:55:07.813Z,76.00
2019-01-13T05:58:12.633Z,75.60
2019-01-13T06:01:17.475Z,76.00
2019-01-13T06:04:22.386Z,76.60
2019-01-13T06:07:27.218Z,76.60
2019-01-13T06:10:32.041Z,76.60
2019-01-13T06:13:36.849Z,76.20
2019-01-13T06:16:41.716Z,75.80
2019-01-13T06:19:46.546Z,75.70
2019-01-13T06:22:51.860Z,75.00
2019-01-13T06:25:56.712Z,75.30
2019-01-13T06:29:01.550Z,75.20
2019-01-13T06:32:06.451Z,74.70
2019-01-13T06:35:11.358Z,74.70
2019-01-13T06:38:16.186Z,74.10
2019-01-13T06:41:21.012Z,74.20
2019-01-13T06:44:26.523Z,74.30
2019-01-13T06:47:31.444Z,74.40
2019-01-13T06:50:36.302Z,74.30
2019-01-13T06:53:41.121Z,74.00
2019-01-13T06:56:45.963Z,74.20
2019-01-13T06:59:50.847Z,73.30
2019-01-13T07:02:56.014Z,73.80
2019-01-13T07:06:00.843Z,73.40
2019-01-13T07:09:07.023Z,72.50
2019-01-13T07:12:11.881Z,72.60
2019-01-13T07:15:18.414Z,72.80
2019-01-13T07:18:23.251Z,72.80
2019-01-13T07:21:28.101Z,72.30
2019-01-13T07:24:32.954Z,73.20
2019-01-13T07:27:37.835Z,72.20
2019-01-13T07:30:42.667Z,72.60
2019-01-13T07:33:47.487Z,72.60
2019-01-13T07:36:52.364Z,72.30
2019-01-13T07:39:57.164Z,72.40
2019-01-13T07:43:02.010Z,72.70
2019-01-13T07:46:06.853Z,71.90
2019-01-13T07:49:11.665Z,72.30
2019-01-13T07:52:16.470Z,73.00
2019-01-13T07:55:21.665Z,72.50
2019-01-13T07:58:26.507Z,72.60
2019-01-13T08:01:31.363Z,72.00
2019-01-13T08:04:36.210Z,71.70
2019-01-13T08:07:41.119Z,71.40
2019-01-13T08:10:46.071Z,71.10
2019-01-13T08:13:50.875Z,71.30
2019-01-13T08:16:55.726Z,70.30
2019-01-13T08:20:00.570Z,70.60
2019-01-13T08:23:05.474Z,70.20
2019-01-13T08:26:10.299Z,70.60
2019-01-13T08:29:15.135Z,69.90
2019-01-13T08:32:24.922Z,70.40
2019-01-13T08:35:27.024Z,70.60
2019-01-13T08:38:31.874Z,70.20
2019-01-13T08:41:36.740Z,70.00
2019-01-13T08:44:41.549Z,70.70
2019-01-13T08:47:46.500Z,70.20
2019-01-13T08:50:51.420Z,70.50
2019-01-13T08:53:56.282Z,70.30
2019-01-13T08:57:01.189Z,70.70
2019-01-13T09:00:11.595Z,70.70
2019-01-13T09:03:16.455Z,70.30
2019-01-13T09:06:21.345Z,71.20
2019-01-13T09:09:26.197Z,71.20
2019-01-13T09:12:31.104Z,71.00
2019-01-13T09:15:35.988Z,71.50
2019-01-13T09:18:40.907Z,71.20
2019-01-13T09:21:45.755Z,71.60
2019-01-13T09:24:50.553Z,72.80
2019-01-13T09:27:55.425Z,73.40
2019-01-13T09:31:00.228Z,73.80
2019-01-13T09:34:05.206Z,73.70
2019-01-13T09:37:10.033Z,74.40
2019-01-13T09:40:20.618Z,74.50
2019-01-13T09:43:25.461Z,74.80
2019-01-13T09:46:30.375Z,74.70
2019-01-13T09:49:35.271Z,75.10
2019-01-13T09:52:40.101Z,75.00
2019-01-13T09:55:44.995Z,74.30
2019-01-13T09:58:49.833Z,74.40
2019-01-13T10:01:54.696Z,75.00
2019-01-13T10:04:59.858Z,74.60
2019-01-13T10:08:04.887Z,75.40
2019-01-13T10:11:09.719Z,75.90
2019-01-13T10:14:14.601Z,75.30
2019-01-13T10:17:19.471Z,76.00
2019-01-13T10:20:24.482Z,75.80
2019-01-13T10:23:29.297Z,75.30
2019-01-13T10:26:34.129Z,75.20
2019-01-13T10:29:38.970Z,75.30
2019-01-13T10:32:43.784Z,74.70
2019-01-13T10:35:48.690Z,75.30
2019-01-13T10:38:53.593Z,74.30
2019-01-13T10:41:58.633Z,74.40
2019-01-13T10:45:05.384Z,74.20
2019-01-13T10:48:10.385Z,75.20
2019-01-13T10:51:15.398Z,74.90
2019-01-13T10:54:20.278Z,74.30
2019-01-13T10:57:25.097Z,75.20
2019-01-13T11:00:31.865Z,74.00
2019-01-13T11:03:36.758Z,74.60
2019-01-13T11:06:41.570Z,73.80
2019-01-13T11:09:46.416Z,74.70
2019-01-13T11:12:51.376Z,74.40
2019-01-13T11:15:56.290Z,75.10
2019-01-13T11:19:02.109Z,75.30
2019-01-13T11:22:07.023Z,74.70
2019-01-13T11:25:12.576Z,74.90
2019-01-13T11:28:17.465Z,74.60
2019-01-13T11:31:22.285Z,74.40
2019-01-13T11:34:27.172Z,75.00
2019-01-13T11:37:32.037Z,74.30
2019-01-13T11:40:37.667Z,74.70
2019-01-13T11:43:42.499Z,76.50
2019-01-13T11:46:47.415Z,76.50
2019-01-13T11:49:52.239Z,76.50
2019-01-13T11:52:57.520Z,76.90
2019-01-13T11:56:02.407Z,77.70
2019-01-13T11:59:07.212Z,77.90
2019-01-13T12:02:12.064Z,77.10
2019-01-13T12:05:16.968Z,78.10
2019-01-13T12:08:21.786Z,77.60
2019-01-13T12:11:26.611Z,78.20
2019-01-13T12:14:31.425Z,77.30
2019-01-13T12:17:36.245Z,77.50
2019-01-13T12:20:41.067Z,77.90
2019-01-13T12:23:45.898Z,78.00
2019-01-13T12:26:50.696Z,78.50
2019-01-13T12:29:55.551Z,78.50
2019-01-13T12:33:00.683Z,78.50
2019-01-13T12:36:05.574Z,79.20
2019-01-13T12:39:12.056Z,78.90
2019-01-13T12:42:16.865Z,78.90
2019-01-13T12:45:22.925Z,79.30
2019-01-13T12:48:27.778Z,79.60
2019-01-13T12:51:32.593Z,79.90
2019-01-13T12:54:37.392Z,80.10
2019-01-13T12:57:42.239Z,80.10
2019-01-13T13:00:47.123Z,80.00
2019-01-13T13:03:51.960Z,80.40
2019-01-13T13:06:56.839Z,80.20
2019-01-13T13:10:01.641Z,80.10
2019-01-13T13:13:06.637Z,79.60
2019-01-13T13:16:11.514Z,80.20
2019-01-13T13:19:16.358Z,79.70
2019-01-13T13:22:21.178Z,79.90
2019-01-13T13:25:31.845Z,79.80
2019-01-13T13:28:32.511Z,79.90
2019-01-13T13:31:37.325Z,80.20
2019-01-13T13:34:42.129Z,80.00
2019-01-13T13:37:47.091Z,79.90
2019-01-13T13:40:51.942Z,80.20
2019-01-13T13:43:56.815Z,79.80
2019-01-13T13:47:01.644Z,79.80
2019-01-13T13:50:09.952Z,80.00
2019-01-13T13:53:14.852Z,80.10
2019-01-13T13:56:19.738Z,80.20
2019-01-13T13:59:24.582Z,80.30
2019-01-13T14:02:29.461Z,80.30
2019-01-13T14:05:34.389Z,80.30
2019-01-13T14:08:39.218Z,80.10
2019-01-13T14:11:44.068Z,80.20
2019-01-13T14:14:48.879Z,80.30
2019-01-13T14:17:53.781Z,80.30
2019-01-13T14:20:58.906Z,80.40
2019-01-13T14:24:03.785Z,80.50
2019-01-13T14:27:08.595Z,80.80
2019-01-13T14:30:16.058Z,80.50
2019-01-13T14:33:20.990Z,80.20
2019-01-13T14:36:25.854Z,80.40
2019-01-13T14:39:30.738Z,80.60
2019-01-13T14:42:36.445Z,80.20
2019-01-13T14:45:41.346Z,80.10
2019-01-13T14:48:46.201Z,80.20
2019-01-13T14:51:51.999Z,79.50
2019-01-13T14:54:57.122Z,79.40
2019-01-13T14:58:01.926Z,79.30
2019-01-13T15:01:06.783Z,80.00
2019-01-13T15:04:11.681Z,79.50
2019-01-13T15:07:16.509Z,79.20
2019-01-13T15:10:23.378Z,79.10
2019-01-13T15:13:28.273Z,78.30
2019-01-13T15:16:33.098Z,77.90
2019-01-13T15:19:37.925Z,78.50
2019-01-13T15:22:42.780Z,78.60
2019-01-13T15:25:47.671Z,78.70
2019-01-13T15:28:52.486Z,78.60
2019-01-13T15:31:57.344Z,79.10
2019-01-13T15:35:02.259Z,78.90
2019-01-13T15:38:08.293Z,78.50
2019-01-13T15:41:13.903Z,79.20
2019-01-13T15:44:18.812Z,79.30
2019-01-13T15:47:23.623Z,78.60
2019-01-13T15:50:29.496Z,79.30
2019-01-13T15:53:34.359Z,78.20
2019-01-13T15:56:39.253Z,79.00
2019-01-13T15:59:44.074Z,78.70
2019-01-13T16:02:48.953Z,78.60
2019-01-13T16:05:53.771Z,78.30
2019-01-13T16:08:58.745Z,78.70
2019-01-13T16:12:03.620Z,78.30
2019-01-13T16:15:10.582Z,78.20
2019-01-13T16:18:15.402Z,78.20
2019-01-13T16:21:20.245Z,77.40
2019-01-13T16:24:25.206Z,77.60
2019-01-13T16:27:30.117Z,77.40
2019-01-13T16:30:35.079Z,77.10
2019-01-13T16:33:39.903Z,76.90
2019-01-13T16:36:44.763Z,76.50
2019-01-13T16:39:50.461Z,76.20
2019-01-13T16:42:55.272Z,76.60
2019-01-13T16:46:01.978Z,76.50
2019-01-13T16:49:06.808Z,76.70
2019-01-13T16:52:11.680Z,76.60
2019-01-13T16:55:16.550Z,76.80
2019-01-13T16:58:21.391Z,76.60
2019-01-13T17:01:26.242Z,76.60
2019-01-13T17:04:31.084Z,76.70
2019-01-13T17:07:35.881Z,76.70
2019-01-13T17:10:41.661Z,76.70
2019-01-13T17:13:46.548Z,77.00
2019-01-13T17:16:51.396Z,76.90
2019-01-13T17:19:56.196Z,76.70
2019-01-13T17:23:01.089Z,76.70
2019-01-13T17:26:05.966Z,77.40
2019-01-13T17:29:10.844Z,78.00
2019-01-13T17:32:15.686Z,77.40
2019-01-13T17:35:20.531Z,77.60
2019-01-13T17:38:25.374Z,78.10
2019-01-13T17:41:30.283Z,77.00
2019-01-13T17:44:35.153Z,77.10
2019-01-13T17:47:40.055Z,77.30
2019-01-13T17:50:44.903Z,77.00
2019-01-13T17:53:50.624Z,76.60
2019-01-13T17:56:55.674Z,77.20
2019-01-13T18:00:00.524Z,76.90
2019-01-13T18:03:08.250Z,75.70
2019-01-13T18:06:13.073Z,75.30
2019-01-13T18:09:18.028Z,75.90
2019-01-13T18:12:22.866Z,75.30
2019-01-13T18:15:27.869Z,75.40
2019-01-13T18:18:32.726Z,74.80
2019-01-13T18:21:37.531Z,74.10
2019-01-13T18:24:42.383Z,73.10
2019-01-13T18:27:47.199Z,72.60
2019-01-13T18:30:53.030Z,71.40
2019-01-13T18:33:57.845Z,70.30
2019-01-13T18:37:03.563Z,70.50
2019-01-13T18:40:11.636Z,70.10
2019-01-13T18:43:16.513Z,70.20
2019-01-13T18:46:21.485Z,69.90
2019-01-13T18:49:26.450Z,70.20
2019-01-13T18:52:31.273Z,69.70
2019-01-13T18:55:36.257Z,70.30
2019-01-13T18:58:42.057Z,69.70
2019-01-13T19:01:46.894Z,70.40
2019-01-13T19:04:57.286Z,69.40
2019-01-13T19:08:00.890Z,69.10
2019-01-13T19:11:08.821Z,68.60
2019-01-13T19:14:19.627Z,69.90
2019-01-13T19:17:24.486Z,69.30
2019-01-13T19:20:30.617Z,69.20
2019-01-13T19:23:35.466Z,68.80
2019-01-13T19:26:41.274Z,67.60
2019-01-13T19:29:46.192Z,68.70
2019-01-13T19:32:52.808Z,68.10
2019-01-13T19:35:57.726Z,68.10
2019-01-13T19:39:03.008Z,68.30
2019-01-13T19:42:08.884Z,68.30
2019-01-13T19:45:17.126Z,68.30
2019-01-13T19:48:21.947Z,67.20
2019-01-13T19:51:26.830Z,67.30
2019-01-13T19:54:32.582Z,68.50
2019-01-13T19:57:37.435Z,68.60
2019-01-13T20:00:42.320Z,67.30
2019-01-13T20:03:47.232Z,68.70
2019-01-13T20:06:52.062Z,69.20
2019-01-13T20:09:56.874Z,68.70
2019-01-13T20:13:01.710Z,67.30
2019-01-13T20:16:06.525Z,67.30
2019-01-13T20:19:11.354Z,67.80
2019-01-13T20:22:16.166Z,67.40
2019-01-13T20:25:20.982Z,65.70
2019-01-13T20:28:25.831Z,66.20
2019-01-13T20:31:30.772Z,66.50
2019-01-13T20:34:35.626Z,66.10
2019-01-13T20:37:40.506Z,65.30
2019-01-13T20:40:45.301Z,65.30
2019-01-13T20:43:50.148Z,65.40
2019-01-13T20:46:54.948Z,65.00
2019-01-13T20:49:59.794Z,65.70
2019-01-13T20:53:04.618Z,65.90
2019-01-13T20:56:09.429Z,64.30
2019-01-13T20:59:14.297Z,65.30
2019-01-13T21:02:19.123Z,65.50
2019-01-13T21:05:26.807Z,65.90
2019-01-13T21:08:31.515Z,66.10
2019-01-13T21:11:36.333Z,65.40
2019-01-13T21:14:41.182Z,66.40
2019-01-13T21:17:46.083Z,66.00
2019-01-13T21:20:50.887Z,66.30
2019-01-13T21:23:55.760Z,66.60
2019-01-13T21:27:00.626Z,66.40
2019-01-13T21:30:22.939Z,67.80
2019-01-13T21:33:27.888Z,68.10
2019-01-13T21:36:32.705Z,68.40
2019-01-13T21:39:37.667Z,69.00
2019-01-13T21:42:42.534Z,69.50
2019-01-13T21:45:48.385Z,69.10
2019-01-13T21:48:53.224Z,69.00
2019-01-13T21:51:58.802Z,69.00
2019-01-13T21:55:04.506Z,68.40
2019-01-13T21:58:09.371Z,67.80
2019-01-13T22:01:14.336Z,67.60
2019-01-13T22:04:19.173Z,67.10
2019-01-13T22:07:24.057Z,66.50
2019-01-13T22:10:29.829Z,66.20
2019-01-13T22:13:34.747Z,65.90
2019-01-13T22:16:39.550Z,65.20
2019-01-13T22:19:44.383Z,64.50
2019-01-13T22:22:50.697Z,64.10
2019-01-13T22:25:55.547Z,64.40
2019-01-13T22:29:00.404Z,64.60
2019-01-13T22:32:05.322Z,64.20
2019-01-13T22:35:10.148Z,64.40
2019-01-13T22:38:14.973Z,63.50
2019-01-13T22:41:20.022Z,62.70
2019-01-13T22:44:24.879Z,63.50
2019-01-13T22:47:29.784Z,63.20
2019-01-13T22:50:34.611Z,64.00
2019-01-13T22:53:39.442Z,64.00
2019-01-13T22:56:44.275Z,63.80
2019-01-13T22:59:49.150Z,62.50
2019-01-13T23:02:54.012Z,60.90
2019-01-13T23:05:58.848Z,61.30
2019-01-13T23:09:05.241Z,61.40
2019-01-13T23:12:10.125Z,61.20
2019-01-13T23:15:14.959Z,61.40
2019-01-13T23:18:19.759Z,61.90
2019-01-13T23:21:24.612Z,61.80
2019-01-13T23:24:29.421Z,61.70
2019-01-13T23:27:34.233Z,61.70
2019-01-13T23:30:39.125Z,61.20
2019-01-13T23:33:44.969Z,61.80
2019-01-13T23:36:49.791Z,59.30
2019-01-13T23:39:54.666Z,59.40
2019-01-13T23:42:59.508Z,57.50
2019-01-13T23:46:04.394Z,59.30
2019-01-13T23:49:09.294Z,59.30
2019-01-13T23:52:14.110Z,58.60
2019-01-13T23:55:19.046Z,58.60
2019-01-13T23:58:23.850Z,57.70
